createdAt,value
2023-01-18T00:01:41.554Z,96495.53
2023-01-18T00:04:19.404Z,96488.72
2023-01-18T00:06:51.103Z,96497.94
2023-01-18T00:09:25.918Z,96493.97
2023-01-18T00:11:57.565Z,96486.72
2023-01-18T00:17:30.299Z,96491.88
2023-01-18T00:20:01.933Z,96494.47
2023-01-18T00:22:33.558Z,96490.25
2023-01-18T00:25:07.094Z,96491.31
2023-01-18T00:27:44.220Z,96483.69
2023-01-18T00:30:23.702Z,96490.91
2023-01-18T00:32:58.889Z,96493.03
2023-01-18T00:35:32.114Z,96493.22
2023-01-18T00:38:03.819Z,96484.97
2023-01-18T00:40:35.502Z,96480.41
2023-01-18T00:43:31.751Z,96484.88
2023-01-18T00:46:03.924Z,96479.47
2023-01-18T00:48:36.421Z,96488.63
2023-01-18T00:51:10.526Z,96488.63
2023-01-18T00:53:46.047Z,96483.19
2023-01-18T00:56:21.788Z,96479.78
2023-01-18T00:58:53.463Z,96480.41
2023-01-18T01:01:25.243Z,96480.84
2023-01-18T01:04:15.935Z,96478.84
2023-01-18T01:06:47.827Z,96481.47
2023-01-18T01:09:22.998Z,96478.28
2023-01-18T01:12:17.044Z,96479.16
2023-01-18T01:15:10.586Z,96477.66
2023-01-18T01:18:00.914Z,96476.44
2023-01-18T01:20:57.475Z,96485.41
2023-01-18T01:23:49.514Z,96490.94
2023-01-18T01:26:21.381Z,96487.97
2023-01-18T01:28:55.871Z,96484.56
2023-01-18T01:31:30.604Z,96486.94
2023-01-18T01:34:02.158Z,96487.75
2023-01-18T01:36:36.806Z,96488.72
2023-01-18T01:39:11.009Z,96491.31
2023-01-18T01:41:42.682Z,96492.53
2023-01-18T01:44:20.079Z,96496.38
2023-01-18T01:46:57.596Z,96499.69
2023-01-18T01:49:36.842Z,96491.63
2023-01-18T01:52:12.035Z,96485.97
2023-01-18T01:55:02.405Z,96481.50
2023-01-18T01:58:18.017Z,96481.69
2023-01-18T02:00:50.283Z,96477.28
2023-01-18T02:03:34.125Z,96485.09
2023-01-18T02:06:36.349Z,96482.47
2023-01-18T02:09:16.862Z,96477.91
2023-01-18T02:11:51.975Z,96480.59
2023-01-18T02:14:27.216Z,96479.47
2023-01-18T02:17:12.248Z,96483.22
2023-01-18T02:20:24.266Z,96472.81
2023-01-18T02:23:11.175Z,96474.63
2023-01-18T02:25:50.192Z,96475.25
2023-01-18T02:28:40.110Z,96462.88
2023-01-18T02:31:43.066Z,96467.25
2023-01-18T02:34:27.322Z,96460.19
2023-01-18T02:37:03.235Z,96465.56
2023-01-18T02:40:04.414Z,96455.53
2023-01-18T02:42:57.908Z,96455.53
2023-01-18T02:46:02.693Z,96455.72
2023-01-18T02:48:40.468Z,96449.97
2023-01-18T02:51:13.074Z,96448.78
2023-01-18T02:53:46.536Z,96451.47
2023-01-18T02:56:37.326Z,96447.84
2023-01-18T02:59:11.984Z,96447.66
2023-01-18T03:02:00.732Z,96447.66
2023-01-18T03:04:58.478Z,96450.09
2023-01-18T03:07:52.680Z,96437.34
2023-01-18T03:10:36.836Z,96433.16
2023-01-18T03:13:16.410Z,96429.41
2023-01-18T03:16:23.262Z,96421.22
2023-01-18T03:19:36.942Z,96420.59
2023-01-18T03:22:10.330Z,96421.47
2023-01-18T03:24:45.350Z,96419.03
2023-01-18T03:27:42.844Z,96417.69
2023-01-18T03:30:33.530Z,96416.44
2023-01-18T03:33:27.155Z,96417.06
2023-01-18T03:36:00.216Z,96426.69
2023-01-18T03:38:33.973Z,96416.09
2023-01-18T03:41:09.843Z,96423.03
2023-01-18T03:43:43.657Z,96416.03
2023-01-18T03:46:18.325Z,96415.03
2023-01-18T03:48:50.102Z,96432.19
2023-01-18T03:51:33.126Z,96433.59
2023-01-18T03:54:15.524Z,96436.75
2023-01-18T03:56:57.941Z,96445.25
2023-01-18T03:59:42.101Z,96448.97
2023-01-18T04:02:16.924Z,96455.97
2023-01-18T04:04:48.459Z,96453.00
2023-01-18T04:07:38.378Z,96457.59
2023-01-18T04:10:12.267Z,96457.94
2023-01-18T04:12:43.997Z,96475.16
2023-01-18T04:15:17.362Z,96472.56
2023-01-18T04:17:53.227Z,96475.00
2023-01-18T04:20:24.944Z,96488.00
2023-01-18T04:22:56.993Z,96492.47
2023-01-18T04:25:29.150Z,96491.31
2023-01-18T04:28:03.681Z,96491.31
2023-01-18T04:30:35.384Z,96486.72
2023-01-18T04:33:07.080Z,96480.16
2023-01-18T04:35:42.654Z,96481.00
2023-01-18T04:38:14.787Z,96484.50
2023-01-18T04:40:46.718Z,96476.56
2023-01-18T04:43:18.543Z,96473.25
2023-01-18T04:45:55.413Z,96477.72
2023-01-18T04:48:28.346Z,96476.97
2023-01-18T04:51:00.268Z,96481.56
2023-01-18T04:53:35.367Z,96474.38
2023-01-18T04:56:07.707Z,96475.94
2023-01-18T04:58:39.438Z,96476.00
2023-01-18T05:01:14.635Z,96477.69
2023-01-18T05:03:46.399Z,96484.16
2023-01-18T05:06:19.981Z,96478.63
2023-01-18T05:09:10.147Z,96477.81
2023-01-18T05:11:42.930Z,96487.31
2023-01-18T05:14:14.766Z,96485.56
2023-01-18T05:16:46.440Z,96496.63
2023-01-18T05:19:18.104Z,96486.06
2023-01-18T05:21:51.045Z,96491.09
2023-01-18T05:24:24.297Z,96489.56
2023-01-18T05:26:58.309Z,96488.34
2023-01-18T05:29:30.123Z,96503.22
2023-01-18T05:32:01.776Z,96499.88
2023-01-18T05:34:34.538Z,96504.94
2023-01-18T05:37:08.382Z,96507.16
2023-01-18T05:39:40.184Z,96512.38
2023-01-18T05:42:14.446Z,96516.94
2023-01-18T05:44:49.369Z,96513.69
2023-01-18T05:47:21.042Z,96514.13
2023-01-18T05:49:52.750Z,96516.78
2023-01-18T05:52:24.375Z,96525.63
2023-01-18T05:54:58.899Z,96523.06
2023-01-18T05:57:30.592Z,96524.28
2023-01-18T06:00:03.512Z,96523.13
2023-01-18T06:02:45.730Z,96521.16
2023-01-18T06:05:17.439Z,96523.75
2023-01-18T06:07:49.411Z,96514.72
2023-01-18T06:10:21.272Z,96524.78
2023-01-18T06:12:56.303Z,96528.00
2023-01-18T06:15:28.192Z,96518.19
2023-01-18T06:18:05.156Z,96524.03
2023-01-18T06:20:36.858Z,96529.84
2023-01-18T06:23:08.577Z,96527.84
2023-01-18T06:25:40.306Z,96537.88
2023-01-18T06:28:12.347Z,96533.19
2023-01-18T06:30:46.412Z,96544.22
2023-01-18T06:33:18.090Z,96554.03
2023-01-18T06:35:49.787Z,96554.47
2023-01-18T06:38:24.192Z,96566.91
2023-01-18T06:40:56.226Z,96574.31
2023-01-18T06:43:28.006Z,96563.09
2023-01-18T06:46:04.812Z,96569.53
2023-01-18T06:48:36.507Z,96574.75
2023-01-18T06:51:08.379Z,96575.13
2023-01-18T06:53:40.121Z,96570.28
2023-01-18T06:56:13.020Z,96576.53
2023-01-18T06:58:47.029Z,96580.75
2023-01-18T07:01:18.816Z,96579.97
2023-01-18T07:03:50.686Z,96584.00
2023-01-18T07:06:25.616Z,96588.63
2023-01-18T07:09:00.182Z,96603.47
2023-01-18T07:11:31.903Z,96611.47
2023-01-18T07:14:03.693Z,96623.34
2023-01-18T07:16:37.836Z,96613.50
2023-01-18T07:19:09.896Z,96620.94
2023-01-18T07:21:41.713Z,96627.75
2023-01-18T07:24:13.347Z,96628.97
2023-01-18T07:26:47.730Z,96636.63
2023-01-18T07:29:19.877Z,96631.81
2023-01-18T07:31:51.949Z,96642.06
2023-01-18T07:34:23.843Z,96637.66
2023-01-18T07:36:55.694Z,96645.50
2023-01-18T07:39:27.370Z,96641.09
2023-01-18T07:42:00.065Z,96649.72
2023-01-18T07:44:35.739Z,96656.78
2023-01-18T07:47:07.953Z,96657.19
2023-01-18T07:49:41.724Z,96665.25
2023-01-18T07:52:13.446Z,96670.94
2023-01-18T07:54:45.649Z,96669.53
2023-01-18T07:57:17.376Z,96669.19
2023-01-18T07:59:52.690Z,96672.78
2023-01-18T08:02:24.297Z,96676.91
2023-01-18T08:04:59.033Z,96677.22
2023-01-18T08:07:36.880Z,96673.81
2023-01-18T08:10:12.589Z,96680.63
2023-01-18T08:15:46.102Z,96672.72
2023-01-18T08:18:18.102Z,96681.13
2023-01-18T08:20:54.333Z,96673.31
2023-01-18T08:23:26.963Z,96676.91
2023-01-18T08:26:03.848Z,96677.72
2023-01-18T08:28:36.968Z,96687.41
2023-01-18T08:31:12.557Z,96687.66
2023-01-18T08:33:47.665Z,96692.91
2023-01-18T08:36:26.478Z,96692.97
2023-01-18T08:39:09.252Z,96682.34
2023-01-18T08:41:44.161Z,96689.19
2023-01-18T08:44:15.695Z,96686.13
2023-01-18T08:46:47.446Z,96690.13
2023-01-18T08:49:22.388Z,96694.94
2023-01-18T08:51:54.096Z,96703.34
2023-01-18T08:54:28.912Z,96710.81
2023-01-18T08:57:02.204Z,96713.66
2023-01-18T08:59:38.012Z,96714.34
2023-01-18T09:02:14.702Z,96711.34
2023-01-18T09:04:49.813Z,96731.47
2023-01-18T09:07:21.481Z,96728.84
2023-01-18T09:09:58.086Z,96739.53
2023-01-18T09:12:29.728Z,96743.38
2023-01-18T09:15:01.835Z,96738.19
2023-01-18T09:17:34.077Z,96738.81
2023-01-18T09:20:10.742Z,96756.41
2023-01-18T09:22:42.910Z,96763.97
2023-01-18T09:25:14.787Z,96764.91
2023-01-18T09:27:48.930Z,96763.66
2023-01-18T09:30:20.671Z,96767.94
2023-01-18T09:32:52.421Z,96771.41
2023-01-18T09:35:27.452Z,96775.03
2023-01-18T09:37:59.451Z,96780.47
2023-01-18T09:40:43.175Z,96788.53
2023-01-18T09:43:28.287Z,96800.44
2023-01-18T09:46:00.007Z,96812.03
2023-01-18T09:48:39.586Z,96815.34
2023-01-18T09:51:22.839Z,96824.19
2023-01-18T09:54:11.573Z,96828.78
2023-01-18T09:57:01.520Z,96831.00
2023-01-18T09:59:43.352Z,96840.22
2023-01-18T10:02:29.373Z,96838.09
2023-01-18T10:05:17.826Z,96842.97
2023-01-18T10:08:07.964Z,96833.81
2023-01-18T10:10:52.610Z,96832.81
2023-01-18T10:13:50.871Z,96830.34
2023-01-18T10:16:22.813Z,96829.97
2023-01-18T10:18:57.279Z,96822.94
2023-01-18T10:21:47.455Z,96825.22
2023-01-18T10:24:53.026Z,96831.25
2023-01-18T10:27:58.357Z,96836.94
2023-01-18T10:30:41.020Z,96842.19
2023-01-18T10:33:25.415Z,96838.75
2023-01-18T10:36:26.755Z,96847.44
2023-01-18T10:39:01.910Z,96845.13
2023-01-18T10:41:40.749Z,96839.38
2023-01-18T10:44:12.376Z,96847.06
2023-01-18T10:46:45.654Z,96844.81
2023-01-18T10:49:48.702Z,96837.75
2023-01-18T10:52:49.759Z,96840.91
2023-01-18T10:55:21.575Z,96840.31
2023-01-18T10:57:54.860Z,96849.41
2023-01-18T11:00:35.023Z,96861.53
2023-01-18T11:03:15.387Z,96860.34
2023-01-18T11:05:47.143Z,96865.16
2023-01-18T11:08:22.658Z,96862.34
2023-01-18T11:11:00.300Z,96864.19
2023-01-18T11:13:42.403Z,96873.66
2023-01-18T11:16:23.850Z,96872.88
2023-01-18T11:19:01.466Z,96878.91
2023-01-18T11:21:54.165Z,96873.97
2023-01-18T11:24:31.406Z,96882.94
2023-01-18T11:27:11.247Z,96882.72
2023-01-18T11:29:45.479Z,96886.13
2023-01-18T11:32:24.050Z,96883.91
2023-01-18T11:34:58.757Z,96889.53
2023-01-18T11:37:30.601Z,96890.91
2023-01-18T11:40:23.194Z,96891.31
2023-01-18T11:43:18.524Z,96899.81
2023-01-18T11:45:59.652Z,96904.81
2023-01-18T11:49:18.832Z,96895.59
2023-01-18T11:52:01.864Z,96899.72
2023-01-18T11:55:04.362Z,96913.47
2023-01-18T11:57:37.114Z,96912.06
2023-01-18T12:00:14.616Z,96929.03
2023-01-18T12:03:02.468Z,96928.25
2023-01-18T12:05:46.032Z,96933.72
2023-01-18T12:08:32.291Z,96940.13
2023-01-18T12:11:24.020Z,96948.41
2023-01-18T12:14:13.823Z,96951.56
2023-01-18T12:17:01.727Z,96956.84
2023-01-18T12:19:53.951Z,96958.44
2023-01-18T12:22:43.553Z,96965.06
2023-01-18T12:26:06.859Z,96967.66
2023-01-18T12:29:04.749Z,96982.59
2023-01-18T12:31:50.595Z,96986.78
2023-01-18T12:34:51.186Z,96983.72
2023-01-18T12:37:50.716Z,96981.09
2023-01-18T12:40:22.523Z,96989.78
2023-01-18T12:43:15.910Z,96988.53
2023-01-18T12:46:00.727Z,96988.53
2023-01-18T12:48:46.860Z,96993.53
2023-01-18T12:51:22.851Z,96999.00
2023-01-18T12:54:39.591Z,96990.16
2023-01-18T12:57:13.294Z,96996.63
2023-01-18T13:00:15.594Z,96993.19
2023-01-18T13:02:54.631Z,97006.56
2023-01-18T13:05:43.168Z,96997.34
2023-01-18T13:08:40.248Z,97004.47
2023-01-18T13:11:22.076Z,97000.50
2023-01-18T13:14:39.706Z,97006.59
2023-01-18T13:17:11.447Z,97013.38
2023-01-18T13:20:00.451Z,97018.81
2023-01-18T13:22:57.996Z,97021.41
2023-01-18T13:25:55.392Z,97020.78
2023-01-18T13:28:30.086Z,97031.63
2023-01-18T13:31:05.421Z,97035.00
2023-01-18T13:33:40.801Z,97050.50
2023-01-18T13:36:19.112Z,97056.34
2023-01-18T13:39:06.911Z,97057.34
2023-01-18T13:41:38.576Z,97063.97
2023-01-18T13:44:44.435Z,97066.94
2023-01-18T13:47:45.805Z,97075.53
2023-01-18T13:50:36.307Z,97079.19
2023-01-18T13:53:22.603Z,97082.22
2023-01-18T13:56:00.286Z,97078.22
2023-01-18T13:58:38.528Z,97084.97
2023-01-18T14:01:24.404Z,97089.13
2023-01-18T14:04:21.140Z,97096.81
2023-01-18T14:06:56.512Z,97105.25
2023-01-18T14:09:55.210Z,97105.44
2023-01-18T14:12:47.502Z,97104.91
2023-01-18T14:15:44.150Z,97114.16
2023-01-18T14:18:31.524Z,97114.31
2023-01-18T14:21:38.716Z,97124.19
2023-01-18T14:24:33.634Z,97130.59
2023-01-18T14:27:10.100Z,97136.06
2023-01-18T14:29:47.783Z,97146.94
2023-01-18T14:32:26.187Z,97146.53
2023-01-18T14:35:00.147Z,97156.28
2023-01-18T14:37:34.343Z,97160.72
2023-01-18T14:40:27.518Z,97167.91
2023-01-18T14:43:11.801Z,97169.13
2023-01-18T14:46:29.787Z,97171.50
2023-01-18T14:49:03.310Z,97175.28
2023-01-18T14:51:35.089Z,97173.66
2023-01-18T14:54:07.000Z,97179.94
2023-01-18T14:56:45.212Z,97184.38
2023-01-18T14:59:19.640Z,97193.41
2023-01-18T15:02:00.283Z,97191.88
2023-01-18T15:04:39.092Z,97195.25
2023-01-18T15:07:18.147Z,97197.13
2023-01-18T15:09:50.677Z,97194.88
2023-01-18T15:12:29.025Z,97202.22
2023-01-18T15:15:20.991Z,97207.72
2023-01-18T15:18:02.528Z,97211.16
2023-01-18T15:20:34.312Z,97216.03
2023-01-18T15:23:06.815Z,97219.47
2023-01-18T15:25:38.640Z,97227.91
2023-01-18T15:28:22.948Z,97229.72
2023-01-18T15:30:57.523Z,97235.31
2023-01-18T15:33:32.019Z,97242.91
2023-01-18T15:36:09.633Z,97252.56
2023-01-18T15:38:41.660Z,97255.81
2023-01-18T15:41:14.988Z,97264.09
2023-01-18T15:43:50.759Z,97262.72
2023-01-18T15:46:22.512Z,97272.81
2023-01-18T15:48:57.876Z,97281.19
2023-01-18T15:51:48.060Z,97281.47
2023-01-18T15:54:29.934Z,97287.53
2023-01-18T15:57:19.248Z,97299.16
2023-01-18T15:59:51.024Z,97293.28
2023-01-18T16:02:23.599Z,97303.38
2023-01-18T16:05:13.711Z,97309.22
2023-01-18T16:07:45.520Z,97309.88
2023-01-18T16:10:18.210Z,97313.66
2023-01-18T16:12:49.855Z,97318.59
2023-01-18T16:15:27.427Z,97321.88
2023-01-18T16:18:05.218Z,97320.69
2023-01-18T16:20:37.076Z,97319.63
2023-01-18T16:23:15.958Z,97320.41
2023-01-18T16:25:54.423Z,97328.88
2023-01-18T16:28:26.475Z,97323.22
2023-01-18T16:30:59.810Z,97330.25
2023-01-18T16:33:31.508Z,97328.63
2023-01-18T16:36:16.432Z,97332.31
2023-01-18T16:38:48.118Z,97331.78
2023-01-18T16:41:19.804Z,97335.75
2023-01-18T16:43:52.092Z,97329.53
2023-01-18T16:46:23.796Z,97335.38
2023-01-18T16:48:55.465Z,97341.88
2023-01-18T16:51:28.727Z,97346.75
2023-01-18T16:54:01.117Z,97342.41
2023-01-18T16:56:33.062Z,97355.22
2023-01-18T16:59:18.371Z,97356.84
2023-01-18T17:01:51.556Z,97355.50
2023-01-18T17:04:26.645Z,97366.84
2023-01-18T17:06:58.290Z,97367.84
2023-01-18T17:09:32.489Z,97372.25
2023-01-18T17:12:06.649Z,97373.25
2023-01-18T17:14:38.363Z,97389.75
2023-01-18T17:17:11.366Z,97382.53
2023-01-18T17:19:43.068Z,97380.47
2023-01-18T17:22:14.825Z,97386.03
2023-01-18T17:24:46.619Z,97383.59
2023-01-18T17:27:18.274Z,97386.84
2023-01-18T17:29:49.989Z,97388.31
2023-01-18T17:32:21.680Z,97395.97
2023-01-18T17:34:53.386Z,97398.56
2023-01-18T17:37:25.094Z,97399.38
2023-01-18T17:40:12.119Z,97401.66
2023-01-18T17:42:46.240Z,97413.09
2023-01-18T17:45:18.120Z,97416.06
2023-01-18T17:47:53.763Z,97414.63
2023-01-18T17:50:26.134Z,97427.75
2023-01-18T17:52:58.088Z,97428.13
2023-01-18T17:55:34.628Z,97438.22
2023-01-18T17:58:06.944Z,97436.97
2023-01-18T18:00:38.692Z,97453.47
2023-01-18T18:03:10.475Z,97449.03
2023-01-18T18:05:42.278Z,97460.31
2023-01-18T18:08:13.984Z,97462.94
2023-01-18T18:10:45.728Z,97480.03
2023-01-18T18:13:19.286Z,97476.44
2023-01-18T18:15:52.159Z,97481.13
2023-01-18T18:18:25.351Z,97488.81
2023-01-18T18:20:59.087Z,97490.78
2023-01-18T18:23:35.064Z,97498.13
2023-01-18T18:26:06.850Z,97502.16
2023-01-18T18:28:38.563Z,97503.34
2023-01-18T18:31:16.429Z,97513.16
2023-01-18T18:33:48.375Z,97519.38
2023-01-18T18:36:21.295Z,97519.91
2023-01-18T18:38:55.683Z,97530.00
2023-01-18T18:41:27.608Z,97541.47
2023-01-18T18:43:59.355Z,97544.25
2023-01-18T18:46:31.175Z,97549.69
2023-01-18T18:49:02.955Z,97554.81
2023-01-18T18:51:37.462Z,97558.16
2023-01-18T18:54:13.139Z,97559.38
2023-01-18T18:56:44.897Z,97564.28
2023-01-18T18:59:16.599Z,97564.09
2023-01-18T19:01:51.728Z,97572.84
2023-01-18T19:04:23.688Z,97583.97
2023-01-18T19:06:55.409Z,97592.47
2023-01-18T19:09:27.110Z,97599.97
2023-01-18T19:11:58.820Z,97609.63
2023-01-18T19:14:30.710Z,97602.63
2023-01-18T19:17:02.840Z,97614.69
2023-01-18T19:19:34.551Z,97623.16
2023-01-18T19:22:09.085Z,97632.47
2023-01-18T19:24:41.577Z,97638.03
2023-01-18T19:27:26.681Z,97644.91
2023-01-18T19:29:58.322Z,97646.06
2023-01-18T19:32:30.030Z,97650.78
2023-01-18T19:35:01.774Z,97649.97
2023-01-18T19:37:33.912Z,97658.47
2023-01-18T19:40:07.533Z,97664.97
2023-01-18T19:42:40.400Z,97667.75
2023-01-18T19:45:19.656Z,97671.34
2023-01-18T19:48:00.622Z,97668.72
2023-01-18T19:50:32.352Z,97675.56
2023-01-18T19:53:04.119Z,97677.84
2023-01-18T19:55:38.340Z,97688.97
2023-01-18T19:58:10.059Z,97689.44
2023-01-18T20:00:41.816Z,97701.03
2023-01-18T20:03:13.910Z,97703.50
2023-01-18T20:05:45.684Z,97706.09
2023-01-18T20:08:17.350Z,97717.16
2023-01-18T20:10:49.172Z,97716.34
2023-01-18T20:13:20.835Z,97718.97
2023-01-18T20:15:54.640Z,97726.28
2023-01-18T20:18:30.035Z,97721.25
2023-01-18T20:21:10.703Z,97718.00
2023-01-18T20:23:44.137Z,97719.94
2023-01-18T20:26:34.825Z,97722.06
2023-01-18T20:29:07.624Z,97725.66
2023-01-18T20:31:39.979Z,97726.47
2023-01-18T20:34:11.663Z,97724.22
2023-01-18T20:36:45.973Z,97725.19
2023-01-18T20:39:18.812Z,97727.47
2023-01-18T20:41:53.219Z,97718.66
2023-01-18T20:44:25.199Z,97711.34
2023-01-18T20:46:57.405Z,97709.38
2023-01-18T20:49:37.756Z,97702.69
2023-01-18T20:52:10.243Z,97712.78
2023-01-18T20:54:41.919Z,97710.66
2023-01-18T20:57:13.880Z,97712.28
2023-01-18T20:59:45.532Z,97714.09
2023-01-18T21:02:17.349Z,97720.47
2023-01-18T21:04:49.130Z,97729.41
2023-01-18T21:07:20.939Z,97733.63
2023-01-18T21:09:52.636Z,97730.22
2023-01-18T21:12:24.402Z,97737.88
2023-01-18T21:14:56.154Z,97736.09
2023-01-18T21:17:27.852Z,97741.47
2023-01-18T21:19:59.549Z,97754.50
2023-01-18T21:22:31.273Z,97767.25
2023-01-18T21:25:03.389Z,97767.25
2023-01-18T21:27:36.676Z,97782.56
2023-01-18T21:30:09.567Z,97798.38
2023-01-18T21:32:41.527Z,97809.13
2023-01-18T21:35:13.982Z,97820.22
2023-01-18T21:37:45.787Z,97829.06
2023-01-18T21:40:17.703Z,97837.53
2023-01-18T21:43:18.429Z,97844.72
2023-01-18T21:45:56.994Z,97851.75
2023-01-18T21:48:30.487Z,97858.44
2023-01-18T21:51:22.964Z,97856.31
2023-01-18T21:54:14.734Z,97861.22
2023-01-18T21:56:47.349Z,97874.13
2023-01-18T21:59:19.029Z,97872.34
2023-01-18T22:01:50.810Z,97879.50
2023-01-18T22:04:41.226Z,97878.19
2023-01-18T22:07:16.255Z,97888.75
2023-01-18T22:10:03.073Z,97887.59
2023-01-18T22:12:38.992Z,97891.56
2023-01-18T22:15:11.806Z,97894.94
2023-01-18T22:17:43.668Z,97893.66
2023-01-18T22:20:15.836Z,97903.59
2023-01-18T22:22:49.544Z,97894.78
2023-01-18T22:25:21.482Z,97900.16
2023-01-18T22:27:53.301Z,97907.47
2023-01-18T22:30:28.692Z,97906.84
2023-01-18T22:33:00.742Z,97906.03
2023-01-18T22:35:32.422Z,97913.22
2023-01-18T22:38:04.124Z,97916.31
2023-01-18T22:40:35.831Z,97915.66
2023-01-18T22:43:11.430Z,97920.69
2023-01-18T22:45:43.102Z,97925.38
2023-01-18T22:48:14.785Z,97937.75
2023-01-18T22:50:55.026Z,97944.28
2023-01-18T22:53:28.731Z,97946.81
2023-01-18T22:56:03.613Z,97949.22
2023-01-18T22:58:35.594Z,97944.09
2023-01-18T23:01:28.479Z,97948.66
2023-01-18T23:04:03.675Z,97958.06
2023-01-18T23:06:48.098Z,97945.97
2023-01-18T23:09:20.399Z,97952.53
2023-01-18T23:11:52.351Z,97957.59
2023-01-18T23:14:42.571Z,97963.31
2023-01-18T23:17:32.957Z,97966.09
2023-01-18T23:20:10.889Z,97971.59
2023-01-18T23:22:42.644Z,97965.41
2023-01-18T23:25:14.340Z,97958.25
2023-01-18T23:27:46.051Z,97961.69
2023-01-18T23:30:19.019Z,97963.16
2023-01-18T23:32:50.994Z,97961.88
2023-01-18T23:35:22.867Z,97969.69
2023-01-18T23:37:54.511Z,97974.25
2023-01-18T23:40:44.397Z,97980.94
2023-01-18T23:43:34.771Z,97978.38
2023-01-18T23:46:24.923Z,97974.81
2023-01-18T23:49:15.323Z,97982.44
2023-01-18T23:52:05.494Z,97980.56
2023-01-18T23:54:37.255Z,97989.97
2023-01-18T23:57:08.937Z,97992.97
2023-01-18T23:59:41.911Z,97993.41
